createdAt,value
2018-08-30T00:00:26.167Z,19.47
2018-08-30T00:02:54.672Z,18.60
2018-08-30T00:05:25.402Z,15.20
2018-08-30T00:07:53.574Z,14.10
2018-08-30T00:10:25.054Z,16.70
2018-08-30T00:12:54.250Z,17.50
2018-08-30T00:15:22.376Z,16.93
2018-08-30T00:17:50.643Z,14.27
2018-08-30T00:20:18.812Z,22.90
2018-08-30T00:22:46.963Z,21.63
2018-08-30T00:25:15.070Z,13.17
2018-08-30T00:27:43.202Z,19.30
2018-08-30T00:30:11.336Z,18.07
2018-08-30T00:32:39.491Z,19.37
2018-08-30T00:35:07.626Z,15.87
2018-08-30T00:37:35.802Z,21.53
2018-08-30T00:40:04.890Z,18.60
2018-08-30T00:42:34.152Z,14.97
2018-08-30T00:45:02.487Z,12.90
2018-08-30T00:47:30.797Z,17.00
2018-08-30T00:49:58.990Z,17.20
2018-08-30T00:52:27.279Z,14.93
2018-08-30T00:54:55.410Z,17.87
2018-08-30T00:57:23.558Z,13.33
2018-08-30T00:59:51.700Z,17.83
2018-08-30T01:02:19.857Z,20.90
2018-08-30T01:04:48.146Z,16.70
2018-08-30T01:07:16.799Z,16.10
2018-08-30T01:09:45.011Z,16.93
2018-08-30T01:12:14.142Z,14.27
2018-08-30T01:14:43.052Z,17.30
2018-08-30T01:17:11.196Z,24.23
2018-08-30T01:19:39.370Z,13.47
2018-08-30T01:22:07.470Z,16.57
2018-08-30T01:24:35.620Z,15.97
2018-08-30T01:27:03.710Z,18.33
2018-08-30T01:29:31.938Z,18.23
2018-08-30T01:32:00.139Z,15.47
2018-08-30T01:34:28.513Z,14.63
2018-08-30T01:36:56.675Z,18.50
2018-08-30T01:39:25.710Z,15.27
2018-08-30T01:41:53.868Z,12.10
2018-08-30T01:44:22.059Z,15.50
2018-08-30T01:46:50.248Z,15.40
2018-08-30T01:49:19.942Z,19.30
2018-08-30T01:51:48.134Z,15.27
2018-08-30T01:54:16.276Z,16.63
2018-08-30T01:56:44.602Z,16.10
2018-08-30T01:59:12.753Z,15.77
2018-08-30T02:01:40.896Z,19.03
2018-08-30T02:04:09.296Z,18.07
2018-08-30T02:06:37.544Z,17.30
2018-08-30T02:09:05.830Z,16.57
2018-08-30T02:11:34.030Z,18.37
2018-08-30T02:14:02.268Z,18.07
2018-08-30T02:16:30.662Z,14.70
2018-08-30T02:18:58.892Z,16.33
2018-08-30T02:21:28.026Z,14.77
2018-08-30T02:23:56.249Z,14.90
2018-08-30T02:26:25.302Z,16.13
2018-08-30T02:28:53.444Z,17.90
2018-08-30T02:31:21.576Z,14.07
2018-08-30T02:33:50.226Z,14.60
2018-08-30T02:36:18.430Z,16.23
2018-08-30T02:38:46.716Z,16.27
2018-08-30T02:41:15.054Z,12.67
2018-08-30T02:43:43.186Z,15.60
2018-08-30T02:46:14.072Z,12.97
2018-08-30T02:48:43.436Z,15.90
2018-08-30T02:51:11.616Z,14.67
2018-08-30T02:53:39.744Z,15.13
2018-08-30T02:56:07.936Z,15.93
2018-08-30T02:58:37.452Z,13.20
2018-08-30T03:01:05.752Z,19.43
2018-08-30T03:03:33.858Z,18.27
2018-08-30T03:06:02.054Z,15.80
2018-08-30T03:08:30.240Z,16.50
2018-08-30T03:10:58.382Z,18.00
2018-08-30T03:13:26.554Z,16.40
2018-08-30T03:15:56.220Z,18.47
2018-08-30T03:18:24.537Z,16.57
2018-08-30T03:20:52.754Z,14.83
2018-08-30T03:23:21.130Z,17.40
2018-08-30T03:25:49.308Z,15.10
2018-08-30T03:28:18.998Z,16.47
2018-08-30T03:30:48.357Z,17.90
2018-08-30T03:33:16.445Z,18.50
2018-08-30T03:35:44.665Z,19.40
2018-08-30T03:38:12.840Z,18.40
2018-08-30T03:40:41.796Z,21.23
2018-08-30T03:43:10.108Z,13.60
2018-08-30T03:45:38.780Z,15.40
2018-08-30T03:48:07.588Z,15.63
2018-08-30T03:50:35.946Z,18.93
2018-08-30T03:53:04.300Z,19.83
2018-08-30T03:55:32.440Z,21.87
2018-08-30T03:58:00.623Z,18.10
2018-08-30T04:00:28.818Z,17.53
2018-08-30T04:02:57.312Z,18.60
2018-08-30T04:05:26.311Z,20.20
2018-08-30T04:07:54.444Z,15.40
2018-08-30T04:10:22.685Z,19.60
2018-08-30T04:12:51.325Z,20.83
2018-08-30T04:15:19.528Z,15.90
2018-08-30T04:17:47.766Z,15.60
2018-08-30T04:20:15.975Z,16.37
2018-08-30T04:22:44.111Z,15.60
2018-08-30T04:25:13.383Z,18.23
2018-08-30T04:27:43.209Z,15.37
2018-08-30T04:30:11.336Z,17.37
2018-08-30T04:32:39.795Z,27.83
2018-08-30T04:35:09.103Z,16.90
2018-08-30T04:37:37.596Z,18.73
2018-08-30T04:40:05.813Z,15.67
2018-08-30T04:42:34.029Z,16.30
2018-08-30T04:45:02.202Z,18.93
2018-08-30T04:47:30.372Z,19.33
2018-08-30T04:49:59.438Z,22.07
2018-08-30T04:52:27.593Z,16.67
2018-08-30T04:54:55.833Z,20.53
2018-08-30T04:57:23.992Z,17.80
2018-08-30T04:59:53.463Z,19.53
2018-08-30T05:02:22.961Z,18.77
2018-08-30T05:04:51.203Z,24.87
2018-08-30T05:07:19.411Z,13.57
2018-08-30T05:09:47.720Z,18.30
2018-08-30T05:12:15.918Z,18.30
2018-08-30T05:14:44.078Z,22.33
2018-08-30T05:17:12.450Z,27.57
2018-08-30T05:19:40.658Z,18.37
2018-08-30T05:22:08.903Z,20.47
2018-08-30T05:24:38.663Z,19.00
2018-08-30T05:27:07.100Z,15.07
2018-08-30T05:29:36.423Z,22.47
2018-08-30T05:32:05.724Z,18.87
2018-08-30T05:34:33.844Z,28.07
2018-08-30T05:37:02.072Z,18.57
2018-08-30T05:39:31.404Z,21.70
2018-08-30T05:42:00.430Z,24.40
2018-08-30T05:44:29.080Z,22.13
2018-08-30T05:46:57.220Z,26.53
2018-08-30T05:49:25.344Z,24.40
2018-08-30T05:51:53.520Z,22.50
2018-08-30T05:54:22.250Z,24.23
2018-08-30T05:56:50.453Z,22.50
2018-08-30T05:59:18.574Z,18.33
2018-08-30T06:01:46.781Z,22.40
2018-08-30T06:04:14.891Z,16.97
2018-08-30T06:06:44.200Z,19.50
2018-08-30T06:09:12.378Z,18.73
2018-08-30T06:11:40.594Z,19.37
2018-08-30T06:14:08.870Z,23.90
2018-08-30T06:16:37.022Z,26.07
2018-08-30T06:19:05.238Z,21.93
2018-08-30T06:21:33.387Z,22.20
2018-08-30T06:24:01.565Z,25.53
2018-08-30T06:26:29.734Z,27.53
2018-08-30T06:28:59.426Z,19.40
2018-08-30T06:31:27.832Z,18.37
2018-08-30T06:33:56.617Z,24.47
2018-08-30T06:36:24.762Z,25.07
2018-08-30T06:38:52.933Z,32.40
2018-08-30T06:41:21.102Z,18.57
2018-08-30T06:43:49.349Z,20.13
2018-08-30T06:46:17.489Z,17.43
2018-08-30T06:48:45.644Z,26.67
2018-08-30T06:51:13.866Z,23.37
2018-08-30T06:53:42.054Z,23.13
2018-08-30T06:56:10.276Z,29.17
2018-08-30T06:58:38.432Z,19.87
2018-08-30T07:01:06.672Z,33.03
2018-08-30T07:03:34.828Z,20.87
2018-08-30T07:06:04.418Z,18.43
2018-08-30T07:08:32.567Z,21.40
2018-08-30T07:11:00.670Z,25.20
2018-08-30T07:13:29.524Z,27.60
2018-08-30T07:15:57.661Z,19.30
2018-08-30T07:18:25.984Z,22.10
2018-08-30T07:20:54.348Z,22.23
2018-08-30T07:23:22.478Z,31.37
2018-08-30T07:25:50.611Z,19.67
2018-08-30T07:28:18.905Z,20.37
2018-08-30T07:30:47.046Z,19.30
2018-08-30T07:33:15.324Z,33.93
2018-08-30T07:35:43.634Z,26.37
2018-08-30T07:38:11.796Z,18.97
2018-08-30T07:40:40.776Z,19.70
2018-08-30T07:43:08.913Z,25.37
2018-08-30T07:45:37.293Z,18.63
2018-08-30T07:48:05.488Z,21.80
2018-08-30T07:50:33.616Z,22.70
2018-08-30T07:53:01.781Z,23.70
2018-08-30T07:55:29.947Z,22.50
2018-08-30T07:57:58.150Z,18.37
2018-08-30T08:00:26.498Z,19.93
2018-08-30T08:02:55.281Z,25.00
2018-08-30T08:05:23.642Z,32.97
2018-08-30T08:07:51.779Z,18.67
2018-08-30T08:10:20.022Z,24.47
2018-08-30T08:12:48.284Z,27.90
2018-08-30T08:15:16.516Z,23.10
2018-08-30T08:17:44.926Z,26.10
2018-08-30T08:20:13.057Z,22.13
2018-08-30T08:22:41.254Z,26.03
2018-08-30T08:25:10.587Z,27.93
2018-08-30T08:27:39.335Z,23.57
2018-08-30T08:30:07.972Z,25.50
2018-08-30T08:32:36.105Z,23.60
2018-08-30T08:35:04.445Z,22.70
2018-08-30T08:37:32.576Z,27.13
2018-08-30T08:40:00.713Z,26.37
2018-08-30T08:42:28.885Z,25.57
2018-08-30T08:44:57.225Z,24.50
2018-08-30T08:47:25.567Z,26.10
2018-08-30T08:49:53.708Z,25.93
2018-08-30T08:52:21.969Z,34.47
2018-08-30T08:54:50.231Z,25.63
2018-08-30T08:57:18.505Z,28.00
2018-08-30T08:59:46.684Z,22.07
2018-08-30T09:02:14.971Z,25.57
2018-08-30T09:04:43.167Z,28.30
2018-08-30T09:07:11.375Z,23.87
2018-08-30T09:09:39.488Z,26.87
2018-08-30T09:12:08.200Z,25.10
2018-08-30T09:14:36.358Z,24.83
2018-08-30T09:17:05.100Z,21.57
2018-08-30T09:19:33.261Z,25.57
2018-08-30T09:22:01.409Z,28.17
2018-08-30T09:24:29.559Z,23.40
2018-08-30T09:26:57.775Z,27.37
2018-08-30T09:29:25.900Z,25.27
2018-08-30T09:31:54.172Z,25.10
2018-08-30T09:34:22.333Z,25.67
2018-08-30T09:36:50.459Z,36.90
2018-08-30T09:39:18.865Z,29.67
2018-08-30T09:41:47.015Z,26.10
2018-08-30T09:44:15.299Z,24.13
2018-08-30T09:46:43.647Z,29.83
2018-08-30T09:49:11.773Z,28.67
2018-08-30T09:51:40.090Z,30.57
2018-08-30T09:54:08.211Z,26.07
2018-08-30T09:56:36.580Z,27.70
2018-08-30T09:59:04.908Z,34.00
2018-08-30T10:01:39.366Z,22.80
2018-08-30T10:04:08.066Z,28.03
2018-08-30T10:06:36.455Z,32.97
2018-08-30T10:09:08.021Z,28.60
2018-08-30T10:11:36.869Z,28.90
2018-08-30T10:14:05.226Z,35.57
2018-08-30T10:16:34.923Z,29.43
2018-08-30T10:19:03.171Z,30.60
2018-08-30T10:21:31.376Z,30.10
2018-08-30T10:23:59.462Z,27.47
2018-08-30T10:26:27.589Z,32.90
2018-08-30T10:28:55.785Z,34.50
2018-08-30T10:31:23.987Z,30.77
2018-08-30T10:33:52.293Z,37.13
2018-08-30T10:36:22.071Z,33.10
2018-08-30T10:38:50.217Z,37.20
2018-08-30T10:41:18.634Z,31.13
2018-08-30T10:43:46.799Z,33.63
2018-08-30T10:46:15.032Z,35.70
2018-08-30T10:48:43.281Z,33.57
2018-08-30T10:51:11.704Z,36.80
2018-08-30T10:53:39.897Z,39.30
2018-08-30T10:56:08.124Z,34.20
2018-08-30T10:58:36.350Z,33.60
2018-08-30T11:01:04.639Z,30.73
2018-08-30T11:03:32.846Z,34.43
2018-08-30T11:06:01.047Z,35.07
2018-08-30T11:08:29.400Z,30.93
2018-08-30T11:10:57.558Z,32.37
2018-08-30T11:13:25.924Z,34.33
2018-08-30T11:15:54.909Z,32.00
2018-08-30T11:18:23.067Z,33.00
2018-08-30T11:20:51.341Z,26.53
2018-08-30T11:23:19.535Z,28.77
2018-08-30T11:25:47.751Z,36.30
2018-08-30T11:28:16.093Z,32.90
2018-08-30T11:30:44.291Z,30.70
2018-08-30T11:33:12.637Z,31.77
2018-08-30T11:35:40.913Z,34.57
2018-08-30T11:38:09.126Z,34.93
2018-08-30T11:40:37.421Z,32.20
2018-08-30T11:43:05.732Z,26.77
2018-08-30T11:45:34.013Z,28.33
2018-08-30T11:48:02.203Z,26.47
2018-08-30T11:50:30.457Z,31.20
2018-08-30T11:52:58.701Z,22.70
2018-08-30T11:55:26.952Z,22.87
2018-08-30T11:57:55.183Z,25.07
2018-08-30T12:00:24.924Z,20.40
2018-08-30T12:02:53.109Z,22.43
2018-08-30T12:05:21.296Z,21.13
2018-08-30T12:07:50.632Z,24.00
2018-08-30T12:10:20.652Z,16.17
2018-08-30T12:12:48.715Z,16.10
2018-08-30T12:15:16.838Z,16.60
2018-08-30T12:17:45.078Z,12.50
2018-08-30T12:20:13.663Z,17.80
2018-08-30T12:22:41.923Z,14.70
2018-08-30T12:25:10.212Z,14.93
2018-08-30T12:27:38.592Z,12.53
2018-08-30T12:30:06.812Z,13.80
2018-08-30T12:32:35.083Z,12.60
2018-08-30T12:35:03.227Z,11.53
2018-08-30T12:37:31.361Z,11.60
2018-08-30T12:39:59.851Z,10.80
2018-08-30T12:42:28.037Z,11.50
2018-08-30T12:44:56.156Z,15.90
2018-08-30T12:47:24.387Z,12.57
2018-08-30T12:49:52.753Z,13.23
2018-08-30T12:52:20.983Z,16.80
2018-08-30T12:54:49.155Z,12.50
2018-08-30T12:57:17.239Z,19.03
2018-08-30T12:59:45.420Z,10.23
2018-08-30T13:02:13.770Z,12.77
2018-08-30T13:04:42.758Z,13.97
2018-08-30T13:07:11.418Z,15.20
2018-08-30T13:09:39.554Z,11.43
2018-08-30T13:12:08.197Z,14.77
2018-08-30T13:14:36.103Z,12.60
2018-08-30T13:17:04.138Z,13.40
2018-08-30T13:19:32.649Z,13.47
2018-08-30T13:22:00.918Z,18.17
2018-08-30T13:24:29.035Z,13.47
2018-08-30T13:26:58.822Z,13.87
2018-08-30T13:29:27.095Z,13.07
2018-08-30T13:31:55.395Z,12.37
2018-08-30T13:34:28.241Z,12.87
2018-08-30T13:36:56.559Z,12.20
2018-08-30T13:39:24.909Z,11.57
2018-08-30T13:41:54.047Z,13.80
2018-08-30T13:44:22.265Z,12.13
2018-08-30T13:46:50.842Z,21.13
2018-08-30T13:49:18.875Z,16.43
2018-08-30T13:51:47.281Z,13.00
2018-08-30T13:54:15.452Z,12.10
2018-08-30T13:56:43.543Z,12.60
2018-08-30T13:59:12.096Z,18.20
2018-08-30T14:01:40.319Z,15.40
2018-08-30T14:04:09.329Z,13.63
2018-08-30T14:06:37.377Z,11.40
2018-08-30T14:09:07.484Z,16.83
2018-08-30T14:11:35.983Z,15.40
2018-08-30T14:14:04.053Z,11.77
2018-08-30T14:16:33.963Z,13.90
2018-08-30T14:19:02.367Z,12.27
2018-08-30T14:21:30.351Z,10.07
2018-08-30T14:23:58.541Z,13.13
2018-08-30T14:26:26.873Z,15.20
2018-08-30T14:28:55.026Z,13.63
2018-08-30T14:31:24.477Z,12.30
2018-08-30T14:33:53.352Z,19.07
2018-08-30T14:36:21.533Z,10.77
2018-08-30T14:38:49.760Z,14.30
2018-08-30T14:41:18.135Z,12.30
2018-08-30T14:43:46.222Z,12.60
2018-08-30T14:46:14.325Z,15.33
2018-08-30T14:48:42.545Z,19.80
2018-08-30T14:51:10.748Z,13.93
2018-08-30T14:53:39.087Z,16.87
2018-08-30T14:56:07.228Z,11.00
2018-08-30T14:58:35.384Z,14.87
2018-08-30T15:01:03.545Z,21.67
2018-08-30T15:03:38.418Z,14.63
2018-08-30T15:06:06.581Z,13.37
2018-08-30T15:08:34.729Z,14.77
2018-08-30T15:11:02.875Z,17.13
2018-08-30T15:13:31.167Z,18.37
2018-08-30T15:15:59.468Z,12.33
2018-08-30T15:18:27.597Z,11.73
2018-08-30T15:20:55.964Z,12.53
2018-08-30T15:23:24.142Z,12.23
2018-08-30T15:25:52.347Z,16.60
2018-08-30T15:28:20.846Z,18.60
2018-08-30T15:30:49.011Z,16.80
2018-08-30T15:33:17.259Z,11.87
2018-08-30T15:35:45.764Z,13.37
2018-08-30T15:38:14.021Z,17.03
2018-08-30T15:40:42.355Z,19.17
2018-08-30T15:43:10.558Z,15.83
2018-08-30T15:45:40.269Z,14.27
2018-08-30T15:48:08.528Z,14.77
2018-08-30T15:50:40.369Z,15.03
2018-08-30T15:53:11.755Z,16.60
2018-08-30T15:55:41.157Z,14.83
2018-08-30T15:58:09.291Z,19.57
2018-08-30T16:00:38.077Z,16.67
2018-08-30T16:03:06.455Z,18.40
2018-08-30T16:05:34.602Z,16.60
2018-08-30T16:08:02.794Z,12.57
2018-08-30T16:10:31.091Z,12.90
2018-08-30T16:13:00.683Z,14.00
2018-08-30T16:15:29.049Z,15.77
2018-08-30T16:17:57.209Z,15.50
2018-08-30T16:20:32.287Z,19.70
2018-08-30T16:23:07.415Z,13.50
2018-08-30T16:25:35.797Z,15.07
2018-08-30T16:28:04.298Z,14.37
2018-08-30T16:30:32.643Z,13.37
2018-08-30T16:33:00.658Z,15.37
2018-08-30T16:35:28.861Z,11.40
2018-08-30T16:37:57.734Z,13.33
2018-08-30T16:40:26.027Z,12.87
2018-08-30T16:42:54.213Z,9.87
2018-08-30T16:45:22.410Z,10.73
2018-08-30T16:47:50.617Z,15.87
2018-08-30T16:50:18.811Z,11.33
2018-08-30T16:52:47.046Z,11.60
2018-08-30T16:55:15.218Z,12.43
2018-08-30T16:57:44.241Z,14.50
2018-08-30T17:00:13.203Z,11.87
2018-08-30T17:02:41.400Z,15.67
2018-08-30T17:05:09.815Z,12.13
2018-08-30T17:07:39.008Z,11.40
2018-08-30T17:10:07.322Z,14.60
2018-08-30T17:12:36.321Z,13.00
2018-08-30T17:15:04.935Z,9.70
2018-08-30T17:17:34.467Z,9.47
2018-08-30T17:20:02.753Z,8.03
2018-08-30T17:22:31.029Z,9.67
2018-08-30T17:24:59.306Z,9.97
2018-08-30T17:27:27.573Z,11.93
2018-08-30T17:29:55.744Z,8.50
2018-08-30T17:32:24.057Z,6.77
2018-08-30T17:34:52.948Z,7.80
2018-08-30T17:37:21.338Z,8.80
2018-08-30T17:39:50.767Z,8.30
2018-08-30T17:42:19.926Z,6.43
2018-08-30T17:44:48.276Z,7.77
2018-08-30T17:47:16.489Z,7.77
2018-08-30T17:49:44.748Z,9.13
2018-08-30T17:52:13.016Z,6.53
2018-08-30T17:54:41.300Z,9.83
2018-08-30T17:57:09.519Z,8.90
2018-08-30T17:59:38.230Z,10.43
2018-08-30T18:02:06.994Z,12.00
2018-08-30T18:04:35.226Z,11.27
2018-08-30T18:07:03.454Z,11.30
2018-08-30T18:09:31.697Z,14.47
2018-08-30T18:11:59.875Z,11.50
2018-08-30T18:14:28.923Z,10.20
2018-08-30T18:16:57.337Z,9.07
2018-08-30T18:19:25.513Z,12.33
2018-08-30T18:21:53.775Z,12.70
2018-08-30T18:24:24.405Z,12.23
2018-08-30T18:26:52.726Z,12.03
2018-08-30T18:29:21.166Z,12.97
2018-08-30T18:31:50.467Z,13.77
2018-08-30T18:34:18.879Z,12.10
2018-08-30T18:36:47.145Z,7.10
2018-08-30T18:39:16.490Z,12.07
2018-08-30T18:41:45.287Z,8.40
2018-08-30T18:44:14.858Z,9.77
2018-08-30T18:46:44.199Z,9.33
2018-08-30T18:49:12.639Z,8.10
2018-08-30T18:51:41.241Z,10.37
2018-08-30T18:54:11.292Z,9.13
2018-08-30T18:56:39.558Z,10.10
2018-08-30T18:59:07.856Z,9.87
2018-08-30T19:01:37.540Z,12.07
2018-08-30T19:04:06.727Z,13.20
2018-08-30T19:06:35.377Z,11.00
2018-08-30T19:09:04.649Z,9.63
2018-08-30T19:11:33.201Z,12.00
2018-08-30T19:14:01.339Z,10.50
2018-08-30T19:16:36.222Z,9.00
2018-08-30T19:19:10.761Z,10.07
2018-08-30T19:21:39.167Z,10.07
2018-08-30T19:24:11.146Z,9.20
2018-08-30T19:26:40.859Z,14.20
2018-08-30T19:29:09.837Z,9.07
2018-08-30T19:31:38.095Z,10.13
2018-08-30T19:34:06.650Z,9.77
2018-08-30T19:36:37.790Z,10.10
2018-08-30T19:39:08.853Z,7.90
2018-08-30T19:41:37.135Z,6.87
2018-08-30T19:44:05.553Z,10.30
2018-08-30T19:46:33.735Z,8.33
2018-08-30T19:49:02.682Z,8.17
2018-08-30T19:51:30.856Z,7.30
2018-08-30T19:53:59.149Z,10.73
2018-08-30T19:56:27.283Z,7.80
2018-08-30T19:58:55.521Z,8.90
2018-08-30T20:01:24.024Z,6.70
2018-08-30T20:03:52.491Z,5.63
2018-08-30T20:06:20.851Z,7.20
2018-08-30T20:08:49.493Z,6.37
2018-08-30T20:11:17.666Z,6.20
2018-08-30T20:13:45.953Z,7.10
2018-08-30T20:16:14.157Z,6.33
2018-08-30T20:18:42.727Z,6.37
2018-08-30T20:21:11.049Z,7.33
2018-08-30T20:23:39.287Z,5.70
2018-08-30T20:26:08.735Z,13.87
2018-08-30T20:28:37.271Z,6.33
2018-08-30T20:31:05.554Z,16.17
2018-08-30T20:33:33.859Z,8.70
2018-08-30T20:36:02.179Z,6.37
2018-08-30T20:38:31.048Z,7.93
2018-08-30T20:40:59.229Z,9.37
2018-08-30T20:43:27.507Z,7.93
2018-08-30T20:45:55.674Z,10.33
2018-08-30T20:48:24.507Z,11.83
2018-08-30T20:50:52.727Z,7.43
2018-08-30T20:53:20.940Z,9.93
2018-08-30T20:55:49.056Z,6.30
2018-08-30T20:58:17.286Z,14.80
2018-08-30T21:00:45.486Z,10.80
2018-08-30T21:03:13.729Z,8.13
2018-08-30T21:05:42.043Z,10.00
2018-08-30T21:08:10.931Z,8.80
2018-08-30T21:10:39.055Z,7.20
2018-08-30T21:13:09.329Z,10.97
2018-08-30T21:15:37.434Z,10.37
2018-08-30T21:18:06.516Z,6.43
2018-08-30T21:20:35.629Z,7.33
2018-08-30T21:23:03.824Z,5.43
2018-08-30T21:25:31.959Z,16.33
2018-08-30T21:28:01.599Z,7.80
2018-08-30T21:30:29.740Z,17.50
2018-08-30T21:32:57.872Z,21.83
2018-08-30T21:35:26.003Z,7.90
2018-08-30T21:37:54.189Z,13.63
2018-08-30T21:40:22.393Z,5.83
2018-08-30T21:42:50.525Z,6.17
2018-08-30T21:45:18.902Z,9.63
2018-08-30T21:47:47.806Z,10.50
2018-08-30T21:50:15.961Z,8.27
2018-08-30T21:52:44.078Z,13.60
2018-08-30T21:55:12.701Z,7.70
2018-08-30T21:57:42.049Z,12.83
2018-08-30T22:00:10.273Z,8.50
2018-08-30T22:02:38.426Z,12.27
2018-08-30T22:05:06.550Z,8.27
2018-08-30T22:07:34.977Z,16.40
2018-08-30T22:10:03.275Z,7.97
2018-08-30T22:12:31.492Z,9.07
2018-08-30T22:14:59.694Z,14.47
2018-08-30T22:17:27.853Z,11.10
2018-08-30T22:19:56.385Z,9.40
2018-08-30T22:22:24.532Z,5.93
2018-08-30T22:24:52.704Z,8.33
2018-08-30T22:27:20.900Z,16.37
2018-08-30T22:29:49.179Z,6.57
2018-08-30T22:32:17.352Z,13.07
2018-08-30T22:34:45.571Z,11.43
2018-08-30T22:37:13.679Z,10.70
2018-08-30T22:39:42.418Z,9.47
2018-08-30T22:42:10.607Z,6.77
2018-08-30T22:44:38.736Z,8.27
2018-08-30T22:47:06.880Z,8.30
2018-08-30T22:49:35.119Z,11.27
2018-08-30T22:52:04.838Z,11.27
2018-08-30T22:54:34.234Z,5.13
2018-08-30T22:57:02.376Z,15.83
2018-08-30T22:59:30.573Z,8.40
2018-08-30T23:01:58.750Z,6.93
2018-08-30T23:04:26.957Z,10.80
2018-08-30T23:06:56.670Z,11.80
2018-08-30T23:09:25.449Z,16.03
2018-08-30T23:11:53.654Z,11.10
2018-08-30T23:14:21.808Z,6.60
2018-08-30T23:16:49.918Z,11.93
2018-08-30T23:19:18.167Z,13.03
2018-08-30T23:21:46.343Z,6.30
2018-08-30T23:24:15.486Z,5.70
2018-08-30T23:26:43.846Z,13.63
2018-08-30T23:29:11.940Z,8.10
2018-08-30T23:31:40.286Z,4.67
2018-08-30T23:34:08.478Z,4.73
2018-08-30T23:36:36.738Z,11.07
2018-08-30T23:39:07.725Z,16.07
2018-08-30T23:41:36.042Z,9.87
2018-08-30T23:44:04.196Z,11.13
2018-08-30T23:46:32.305Z,10.03
2018-08-30T23:49:00.394Z,9.10
2018-08-30T23:51:29.027Z,9.13
2018-08-30T23:53:57.219Z,8.80
2018-08-30T23:56:25.501Z,12.63
2018-08-30T23:59:05.088Z,9.13
